Buoy 48769

sailwx.info

Track history (hours):
 
Tides and Currents Weather Stations Pressure Air Temp Water Temp Dewpoint Dewpoint Depression Visibility Wind Speed Wind Dir Waves Ship Positions

Drifting buoy 48769

Last reported at 2018-Feb-20 03:05 UTC. Time now 2018-Feb-20 04:24 UTC.
Position N 70°32' W 102°12'.

Barometer 1023.3 mb

Date/timePositionNaut miles runAvg speedWind from/ knotsBaromVisibWave heightAir tempDewpointWater temp
2018-Feb-20 03:05N 70°32' W 102°12'0 0.0 1023.3
2018-Feb-20 03:00N 70°32' W 102°12'0 0.0 1023.3 -18.3
2018-Feb-20 02:05N 70°32' W 102°12'0 0.0 1023.4
2018-Feb-20 02:00N 70°32' W 102°12'0 0.0 1023.4 -18.3
2018-Feb-19 22:05N 70°32' W 102°12'0 0.0 1024.0
2018-Feb-19 22:00N 70°32' W 102°12'0 0.0 1024.0 -18.1
2018-Feb-19 20:05N 70°32' W 102°12'0 0.0 1023.6
2018-Feb-19 20:00N 70°32' W 102°12'0 0.0 1023.6 -18.1
2018-Feb-19 18:05N 70°32' W 102°12'0 0.0 1023.8
2018-Feb-19 18:00N 70°32' W 102°12'0 0.0 1023.8 -18.0
2018-Feb-19 16:00N 70°32' W 102°12'0 0.0 1023.8 -18.0
2018-Feb-19 11:00N 70°32' W 102°12'0 0.0 1023.3 -17.9
2018-Feb-19 10:05N 70°32' W 102°12'0 0.0 1023.1
2018-Feb-19 10:00N 70°32' W 102°12'0 0.0 1023.1 -17.9
2018-Feb-19 09:05N 70°32' W 102°12'0 0.0 1022.9
2018-Feb-19 09:00N 70°32' W 102°12'0 0.0 1022.9 -17.9
2018-Feb-19 07:06N 70°32' W 102°12'0 0.0 1022.4
2018-Feb-19 07:00N 70°32' W 102°12'0 0.0 1022.4 -17.9
2018-Feb-19 04:05N 70°32' W 102°12'0 0.0 1021.2
2018-Feb-19 04:00N 70°32' W 102°12'0 0.0 1021.2 -17.9
2018-Feb-19 03:05N 70°32' W 102°12'0 0.0 1020.6
2018-Feb-19 03:00N 70°32' W 102°12'0 0.0 1020.6 -17.9
2018-Feb-18 23:05N 70°32' W 102°12'0 0.0 1019.8
2018-Feb-18 23:00N 70°32' W 102°12'0 0.0 1019.8 -18.1
2018-Feb-18 18:05N 70°32' W 102°12'0 0.0 1017.0
2018-Feb-18 18:00N 70°32' W 102°12'0 0.0 1017.0 -18.3
2018-Feb-18 17:00N 70°32' W 102°12'0 0.0 1016.5 -18.3
2018-Feb-18 16:05N 70°32' W 102°12'0 0.0 1016.5
2018-Feb-18 16:00N 70°32' W 102°12'0 0.0 1016.5 -18.3
2018-Feb-18 14:05N 70°32' W 102°12'0 0.0 1016.7
2018-Feb-18 14:00N 70°32' W 102°12'0 0.0 1016.7 -18.3
2018-Feb-18 12:05N 70°32' W 102°12'0 0.0 1016.9
2018-Feb-18 12:00N 70°32' W 102°12'0 0.0 1016.9 -18.1
2018-Feb-18 07:05N 70°32' W 102°12'0 0.0 1018.3
2018-Feb-18 07:00N 70°32' W 102°12'0 0.0 1018.3 -17.9
2018-Feb-18 06:05N 70°32' W 102°12'0 0.0 1018.5
2018-Feb-18 06:00N 70°32' W 102°12'0 0.0 1018.5 -17.8
2018-Feb-18 02:01N 70°32' W 102°12'0 0.0 1019.5
2018-Feb-18 02:00N 70°32' W 102°12'0 0.0 1019.5 -17.7
2018-Feb-18 00:05N 70°32' W 102°12'0 0.0 1019.9
2018-Feb-18 00:00N 70°32' W 102°12'0 0.0 1019.9 -17.6
2018-Feb-17 21:05N 70°32' W 102°12'0 0.0 1019.0
2018-Feb-17 21:00N 70°32' W 102°12'0 0.0 1019.0 -17.5
2018-Feb-17 19:05N 70°32' W 102°12'0 0.0 1018.3
2018-Feb-17 19:00N 70°32' W 102°12'0 0.0 1018.3 -17.4
2018-Feb-17 17:00N 70°32' W 102°12'0 0.0 1017.6 -17.4
2018-Feb-17 15:05N 70°32' W 102°12'0 0.0 1016.6
2018-Feb-17 15:00N 70°32' W 102°12'0 0.0 1016.6 -17.3
2018-Feb-17 08:00N 70°32' W 102°12'0 0.0 1013.7 -17.2
2018-Feb-17 06:05N 70°32' W 102°12'0 0.0 1012.9
2018-Feb-17 06:00N 70°32' W 102°12'0 0.0 1012.9 -17.1
2018-Feb-17 05:05N 70°32' W 102°12'0 0.0 1012.6
2018-Feb-17 05:00N 70°32' W 102°12'0 0.0 1012.6 -17.1
2018-Feb-16 22:05N 70°32' W 102°12'0 0.0 1009.3
2018-Feb-16 22:00N 70°32' W 102°12'0 0.0 1009.3 -17.0
2018-Feb-16 18:05N 70°32' W 102°12'0 0.0 1006.6
2018-Feb-16 18:00N 70°32' W 102°12'0 0.0 1006.6 -17.0
2018-Feb-16 15:05N 70°32' W 102°12'0 0.0 1004.9
2018-Feb-16 15:00N 70°32' W 102°12'0 0.0 1004.9 -17.0
2018-Feb-16 11:05N 70°32' W 102°12'0 0.0 1002.6
2018-Feb-16 11:00N 70°32' W 102°12'0 0.0 1002.6 -17.0
2018-Feb-16 10:05N 70°32' W 102°12'0 0.0 1001.7
2018-Feb-16 10:00N 70°32' W 102°12'0 0.0 1001.7 -17.0
2018-Feb-16 09:05N 70°32' W 102°12'0 0.0 1001.3
2018-Feb-16 09:00N 70°32' W 102°12'0 0.0 1001.3 -17.0
2018-Feb-16 07:05N 70°32' W 102°12'0 0.0 1000.2
2018-Feb-16 07:00N 70°32' W 102°12'0 0.0 1000.2 -17.0
2018-Feb-16 04:00N 70°32' W 102°12'0 0.0 998.8 -16.9
2018-Feb-16 03:00N 70°32' W 102°12'0 0.0 998.3 -16.9
2018-Feb-16 01:00N 70°32' W 102°12'0 0.0 998.3 -17.0
2018-Feb-15 23:05N 70°32' W 102°12'0 0.0 998.9
2018-Feb-15 23:00N 70°32' W 102°12'0 0.0 998.9 -17.0
2018-Feb-15 21:05N 70°32' W 102°12'0 0.0 999.6
2018-Feb-15 21:00N 70°32' W 102°12'0 0.0 999.6 -17.0
2018-Feb-15 18:05N 70°32' W 102°12'0 0.0 999.8
2018-Feb-15 18:00N 70°32' W 102°12'0 0.0 999.8 -17.0
2018-Feb-15 16:05N 70°32' W 102°12'0 0.0 1000.8
2018-Feb-15 16:00N 70°32' W 102°12'0 0.0 1000.8 -17.1
2018-Feb-15 12:05N 70°32' W 102°12'0 0.0 1002.2
2018-Feb-15 12:00N 70°32' W 102°12'0 0.0 1002.2 -17.0
2018-Feb-15 10:00N 70°32' W 102°12'0 0.0 1002.8 -16.9
2018-Feb-15 06:05N 70°32' W 102°12'0 0.0 1003.5
2018-Feb-15 06:00N 70°32' W 102°12'0 0.0 1003.5 -16.7
2018-Feb-15 02:05N 70°32' W 102°12'0 0.0 1004.3
2018-Feb-15 02:00N 70°32' W 102°12'0 0.0 1004.3 -16.7
2018-Feb-13 18:00N 70°32' W 102°12'0 0.0 1011.7 -16.7
2018-Feb-13 13:05N 70°32' W 102°12'0 0.0 1010.5
2018-Feb-13 13:00N 70°32' W 102°12'0 0.0 1010.5 -16.8
2018-Feb-13 11:05N 70°32' W 102°12'0 0.0 1009.9
2018-Feb-13 11:00N 70°32' W 102°12'0 0.0 1009.9 -16.9
2018-Feb-13 09:05N 70°32' W 102°12'0 0.0 1008.6
2018-Feb-13 09:00N 70°32' W 102°12'0 0.0 1008.6 -17.0
2018-Feb-13 04:05N 70°32' W 102°12'0 0.0 1004.6
2018-Feb-13 04:00N 70°32' W 102°12'0 0.0 1004.6 -17.1
2018-Feb-13 03:05N 70°32' W 102°12'0 0.0 1003.8
2018-Feb-13 03:00N 70°32' W 102°12'0 0.0 1003.8 -17.0
2018-Feb-13 01:05N 70°32' W 102°12'0 0.0 1002.2
2018-Feb-13 01:00N 70°32' W 102°12'0 0.0 1002.2 -16.7
2018-Feb-12 23:05N 70°32' W 102°12'0 0.0 1000.7
2018-Feb-12 23:00N 70°32' W 102°12'0 0.0 1000.7 -16.4
2018-Feb-12 21:05N 70°32' W 102°12'0 0.0 998.9
2018-Feb-12 21:00N 70°32' W 102°12'0 0.0 998.9 -16.1
2018-Feb-12 16:05N 70°32' W 102°12'0 0.0 995.3
2018-Feb-12 16:00N 70°32' W 102°12'0 0.0 995.3 -15.8
2018-Feb-12 12:00N 70°32' W 102°12'0 0.0 995.5 -16.1
2018-Feb-12 07:00N 70°32' W 102°12'0 0.0 997.0 -16.4
2018-Feb-12 04:00N 70°32' W 102°12'0 0.0 998.7 -16.4
2018-Feb-12 02:00N 70°32' W 102°12'0 0.0 1000.0 -16.3
2018-Feb-11 23:00N 70°32' W 102°12'0 0.0 1002.1 -16.6
2018-Feb-11 19:00N 70°32' W 102°12'0 0.0 1005.7 -16.9
2018-Feb-11 17:00N 70°32' W 102°12'0 0.0 1007.7 -17.1
2018-Feb-11 15:00N 70°32' W 102°12'0 0.0 1009.5 -17.0
2018-Feb-11 14:00N 70°32' W 102°12'0 0.0 1010.7 -16.9
2018-Feb-11 13:00N 70°32' W 102°12'0 0.0 1011.8 -16.9
2018-Feb-11 10:00N 70°32' W 102°12'0 0.0 1013.6 -16.9
2018-Feb-11 08:00N 70°32' W 102°12'0 0.0 1013.8 -16.9
2018-Feb-11 07:00N 70°32' W 102°12'0 0.0 1014.0 -17.0
2018-Feb-11 05:00N 70°32' W 102°12'0 0.0 1014.5 -16.9
2018-Feb-11 03:00N 70°32' W 102°12'0 0.0 1014.5 -16.9
2018-Feb-11 02:00N 70°32' W 102°12'0 0.0 1014.3 -16.8
2018-Feb-11 01:00N 70°32' W 102°12'0 0.0 1013.9 -16.8
2018-Feb-10 22:00N 70°32' W 102°12'0 0.0 1013.0 -16.7
2018-Feb-10 20:00N 70°32' W 102°12'0 0.0 1012.3 -16.6
2018-Feb-10 18:00N 70°32' W 102°12'0 0.0 1012.1 -16.6
2018-Feb-10 16:00N 70°32' W 102°12'0 0.0 1012.1 -16.6
2018-Feb-10 13:00N 70°32' W 102°12'0 0.0 1011.5 -16.6
2018-Feb-10 11:00N 70°32' W 102°12'0 0.0 1011.2 -16.6
2018-Feb-10 09:00N 70°32' W 102°12'0 0.0 1011.0 -16.6
2018-Feb-10 07:00N 70°32' W 102°12'0 0.0 1010.8 -16.5
2018-Feb-10 05:00N 70°32' W 102°12'0 0.0 1010.5 -16.5
2018-Feb-10 04:00N 70°32' W 102°12'   1010.6 -16.4
Track history (hours):
 
Tides and Currents Weather Stations Pressure Air Temp Water Temp Dewpoint Dewpoint Depression Visibility Wind Speed Wind Dir Waves Ship Positions

Drifting buoy 48769

Last reported at 2018-Feb-20 03:05 UTC. Time now 2018-Feb-20 04:24 UTC.
Position N 70°32' W 102°12'.

Barometer 1023.3 mb

Date/timePositionNaut miles runAvg speedWind from/ knotsBaromVisibWave heightAir tempDewpointWater temp
2018-Feb-20 03:05N 70°32' W 102°12'0 0.0 1023.3
2018-Feb-20 03:00N 70°32' W 102°12'0 0.0 1023.3 -18.3
2018-Feb-20 02:05N 70°32' W 102°12'0 0.0 1023.4
2018-Feb-20 02:00N 70°32' W 102°12'0 0.0 1023.4 -18.3
2018-Feb-19 22:05N 70°32' W 102°12'0 0.0 1024.0
2018-Feb-19 22:00N 70°32' W 102°12'0 0.0 1024.0 -18.1
2018-Feb-19 20:05N 70°32' W 102°12'0 0.0 1023.6
2018-Feb-19 20:00N 70°32' W 102°12'0 0.0 1023.6 -18.1
2018-Feb-19 18:05N 70°32' W 102°12'0 0.0 1023.8
2018-Feb-19 18:00N 70°32' W 102°12'0 0.0 1023.8 -18.0
2018-Feb-19 16:00N 70°32' W 102°12'0 0.0 1023.8 -18.0
2018-Feb-19 11:00N 70°32' W 102°12'0 0.0 1023.3 -17.9
2018-Feb-19 10:05N 70°32' W 102°12'0 0.0 1023.1
2018-Feb-19 10:00N 70°32' W 102°12'0 0.0 1023.1 -17.9
2018-Feb-19 09:05N 70°32' W 102°12'0 0.0 1022.9
2018-Feb-19 09:00N 70°32' W 102°12'0 0.0 1022.9 -17.9
2018-Feb-19 07:06N 70°32' W 102°12'0 0.0 1022.4
2018-Feb-19 07:00N 70°32' W 102°12'0 0.0 1022.4 -17.9
2018-Feb-19 04:05N 70°32' W 102°12'0 0.0 1021.2
2018-Feb-19 04:00N 70°32' W 102°12'0 0.0 1021.2 -17.9
2018-Feb-19 03:05N 70°32' W 102°12'0 0.0 1020.6
2018-Feb-19 03:00N 70°32' W 102°12'0 0.0 1020.6 -17.9
2018-Feb-18 23:05N 70°32' W 102°12'0 0.0 1019.8
2018-Feb-18 23:00N 70°32' W 102°12'0 0.0 1019.8 -18.1
2018-Feb-18 18:05N 70°32' W 102°12'0 0.0 1017.0
2018-Feb-18 18:00N 70°32' W 102°12'0 0.0 1017.0 -18.3
2018-Feb-18 17:00N 70°32' W 102°12'0 0.0 1016.5 -18.3
2018-Feb-18 16:05N 70°32' W 102°12'0 0.0 1016.5
2018-Feb-18 16:00N 70°32' W 102°12'0 0.0 1016.5 -18.3
2018-Feb-18 14:05N 70°32' W 102°12'0 0.0 1016.7
2018-Feb-18 14:00N 70°32' W 102°12'0 0.0 1016.7 -18.3
2018-Feb-18 12:05N 70°32' W 102°12'0 0.0 1016.9
2018-Feb-18 12:00N 70°32' W 102°12'0 0.0 1016.9 -18.1
2018-Feb-18 07:05N 70°32' W 102°12'0 0.0 1018.3
2018-Feb-18 07:00N 70°32' W 102°12'0 0.0 1018.3 -17.9
2018-Feb-18 06:05N 70°32' W 102°12'0 0.0 1018.5
2018-Feb-18 06:00N 70°32' W 102°12'0 0.0 1018.5 -17.8
2018-Feb-18 02:01N 70°32' W 102°12'0 0.0 1019.5
2018-Feb-18 02:00N 70°32' W 102°12'0 0.0 1019.5 -17.7
2018-Feb-18 00:05N 70°32' W 102°12'0 0.0 1019.9
2018-Feb-18 00:00N 70°32' W 102°12'0 0.0 1019.9 -17.6
2018-Feb-17 21:05N 70°32' W 102°12'0 0.0 1019.0
2018-Feb-17 21:00N 70°32' W 102°12'0 0.0 1019.0 -17.5
2018-Feb-17 19:05N 70°32' W 102°12'0 0.0 1018.3
2018-Feb-17 19:00N 70°32' W 102°12'0 0.0 1018.3 -17.4
2018-Feb-17 17:00N 70°32' W 102°12'0 0.0 1017.6 -17.4
2018-Feb-17 15:05N 70°32' W 102°12'0 0.0 1016.6
2018-Feb-17 15:00N 70°32' W 102°12'0 0.0 1016.6 -17.3
2018-Feb-17 08:00N 70°32' W 102°12'0 0.0 1013.7 -17.2
2018-Feb-17 06:05N 70°32' W 102°12'0 0.0 1012.9
2018-Feb-17 06:00N 70°32' W 102°12'0 0.0 1012.9 -17.1
2018-Feb-17 05:05N 70°32' W 102°12'0 0.0 1012.6
2018-Feb-17 05:00N 70°32' W 102°12'0 0.0 1012.6 -17.1
2018-Feb-16 22:05N 70°32' W 102°12'0 0.0 1009.3
2018-Feb-16 22:00N 70°32' W 102°12'0 0.0 1009.3 -17.0
2018-Feb-16 18:05N 70°32' W 102°12'0 0.0 1006.6
2018-Feb-16 18:00N 70°32' W 102°12'0 0.0 1006.6 -17.0
2018-Feb-16 15:05N 70°32' W 102°12'0 0.0 1004.9
2018-Feb-16 15:00N 70°32' W 102°12'0 0.0 1004.9 -17.0
2018-Feb-16 11:05N 70°32' W 102°12'0 0.0 1002.6
2018-Feb-16 11:00N 70°32' W 102°12'0 0.0 1002.6 -17.0
2018-Feb-16 10:05N 70°32' W 102°12'0 0.0 1001.7
2018-Feb-16 10:00N 70°32' W 102°12'0 0.0 1001.7 -17.0
2018-Feb-16 09:05N 70°32' W 102°12'0 0.0 1001.3
2018-Feb-16 09:00N 70°32' W 102°12'0 0.0 1001.3 -17.0
2018-Feb-16 07:05N 70°32' W 102°12'0 0.0 1000.2
2018-Feb-16 07:00N 70°32' W 102°12'0 0.0 1000.2 -17.0
2018-Feb-16 04:00N 70°32' W 102°12'0 0.0 998.8 -16.9
2018-Feb-16 03:00N 70°32' W 102°12'0 0.0 998.3 -16.9
2018-Feb-16 01:00N 70°32' W 102°12'0 0.0 998.3 -17.0
2018-Feb-15 23:05N 70°32' W 102°12'0 0.0 998.9
2018-Feb-15 23:00N 70°32' W 102°12'0 0.0 998.9 -17.0
2018-Feb-15 21:05N 70°32' W 102°12'0 0.0 999.6
2018-Feb-15 21:00N 70°32' W 102°12'0 0.0 999.6 -17.0
2018-Feb-15 18:05N 70°32' W 102°12'0 0.0 999.8
2018-Feb-15 18:00N 70°32' W 102°12'0 0.0 999.8 -17.0
2018-Feb-15 16:05N 70°32' W 102°12'0 0.0 1000.8
2018-Feb-15 16:00N 70°32' W 102°12'0 0.0 1000.8 -17.1
2018-Feb-15 12:05N 70°32' W 102°12'0 0.0 1002.2
2018-Feb-15 12:00N 70°32' W 102°12'0 0.0 1002.2 -17.0
2018-Feb-15 10:00N 70°32' W 102°12'0 0.0 1002.8 -16.9
2018-Feb-15 06:05N 70°32' W 102°12'0 0.0 1003.5
2018-Feb-15 06:00N 70°32' W 102°12'0 0.0 1003.5 -16.7
2018-Feb-15 02:05N 70°32' W 102°12'0 0.0 1004.3
2018-Feb-15 02:00N 70°32' W 102°12'0 0.0 1004.3 -16.7
2018-Feb-13 18:00N 70°32' W 102°12'0 0.0 1011.7 -16.7
2018-Feb-13 13:05N 70°32' W 102°12'0 0.0 1010.5
2018-Feb-13 13:00N 70°32' W 102°12'0 0.0 1010.5 -16.8
2018-Feb-13 11:05N 70°32' W 102°12'0 0.0 1009.9
2018-Feb-13 11:00N 70°32' W 102°12'0 0.0 1009.9 -16.9
2018-Feb-13 09:05N 70°32' W 102°12'0 0.0 1008.6
2018-Feb-13 09:00N 70°32' W 102°12'0 0.0 1008.6 -17.0
2018-Feb-13 04:05N 70°32' W 102°12'0 0.0 1004.6
2018-Feb-13 04:00N 70°32' W 102°12'0 0.0 1004.6 -17.1
2018-Feb-13 03:05N 70°32' W 102°12'0 0.0 1003.8
2018-Feb-13 03:00N 70°32' W 102°12'0 0.0 1003.8 -17.0
2018-Feb-13 01:05N 70°32' W 102°12'0 0.0 1002.2
2018-Feb-13 01:00N 70°32' W 102°12'0 0.0 1002.2 -16.7
2018-Feb-12 23:05N 70°32' W 102°12'0 0.0 1000.7
2018-Feb-12 23:00N 70°32' W 102°12'0 0.0 1000.7 -16.4
2018-Feb-12 21:05N 70°32' W 102°12'0 0.0 998.9
2018-Feb-12 21:00N 70°32' W 102°12'0 0.0 998.9 -16.1
2018-Feb-12 16:05N 70°32' W 102°12'0 0.0 995.3
2018-Feb-12 16:00N 70°32' W 102°12'0 0.0 995.3 -15.8
2018-Feb-12 12:00N 70°32' W 102°12'0 0.0 995.5 -16.1
2018-Feb-12 07:00N 70°32' W 102°12'0 0.0 997.0 -16.4
2018-Feb-12 04:00N 70°32' W 102°12'0 0.0 998.7 -16.4
2018-Feb-12 02:00N 70°32' W 102°12'0 0.0 1000.0 -16.3
2018-Feb-11 23:00N 70°32' W 102°12'0 0.0 1002.1 -16.6
2018-Feb-11 19:00N 70°32' W 102°12'0 0.0 1005.7 -16.9
2018-Feb-11 17:00N 70°32' W 102°12'0 0.0 1007.7 -17.1
2018-Feb-11 15:00N 70°32' W 102°12'0 0.0 1009.5 -17.0
2018-Feb-11 14:00N 70°32' W 102°12'0 0.0 1010.7 -16.9
2018-Feb-11 13:00N 70°32' W 102°12'0 0.0 1011.8 -16.9
2018-Feb-11 10:00N 70°32' W 102°12'0 0.0 1013.6 -16.9
2018-Feb-11 08:00N 70°32' W 102°12'0 0.0 1013.8 -16.9
2018-Feb-11 07:00N 70°32' W 102°12'0 0.0 1014.0 -17.0
2018-Feb-11 05:00N 70°32' W 102°12'0 0.0 1014.5 -16.9
2018-Feb-11 03:00N 70°32' W 102°12'0 0.0 1014.5 -16.9
2018-Feb-11 02:00N 70°32' W 102°12'0 0.0 1014.3 -16.8
2018-Feb-11 01:00N 70°32' W 102°12'0 0.0 1013.9 -16.8
2018-Feb-10 22:00N 70°32' W 102°12'0 0.0 1013.0 -16.7
2018-Feb-10 20:00N 70°32' W 102°12'0 0.0 1012.3 -16.6
2018-Feb-10 18:00N 70°32' W 102°12'0 0.0 1012.1 -16.6
2018-Feb-10 16:00N 70°32' W 102°12'0 0.0 1012.1 -16.6
2018-Feb-10 13:00N 70°32' W 102°12'0 0.0 1011.5 -16.6
2018-Feb-10 11:00N 70°32' W 102°12'0 0.0 1011.2 -16.6
2018-Feb-10 09:00N 70°32' W 102°12'0 0.0 1011.0 -16.6
2018-Feb-10 07:00N 70°32' W 102°12'0 0.0 1010.8 -16.5
2018-Feb-10 05:00N 70°32' W 102°12'0 0.0 1010.5 -16.5
2018-Feb-10 04:00N 70°32' W 102°12'   1010.6 -16.4

Dump ship's entire track history